Time;durP1;ratioP1;P1;durP2;ratioP2;P2;SDS_P1;SDS_P2;PMS_P1;PMS_P2;Temp;Humidity;BMP_temperature;BMP_pressure;BME280_temperature;BME280_humidity;BME280_pressure;Samples;Min_cycle;Max_cycle;Signal;HPM_P1;HPM_P2
2023/06/07 00:02:04;;;;;;;;;;;12.20;99.90;;;;;;5057250;28;20012;-83
2023/06/07 00:04:30;;;;;;;;;;;12.20;99.90;;;;;;5061171;28;19951;-83
2023/06/07 00:07:00;;;;;;;;;;;12.10;99.90;;;;;;5073341;28;20446;-83
2023/06/07 00:09:30;;;;;;;;;;;12.20;99.90;;;;;;5057356;28;19908;-84
2023/06/07 00:11:55;;;;;;;;;;;12.10;99.90;;;;;;5073540;28;20016;-83
2023/06/07 00:14:21;;;;;;;;;;;12.10;99.90;;;;;;5056901;28;19937;-83
2023/06/07 00:16:49;;;;;;;;;;;12.10;99.90;;;;;;5073538;28;19914;-84
2023/06/07 00:19:21;;;;;;;;;;;12.10;99.90;;;;;;5073181;28;19909;-84
2023/06/07 00:21:48;;;;;;;;;;;12.10;99.90;;;;;;5073871;28;19993;-83
2023/06/07 00:24:15;;;;;;;;;;;12.00;99.90;;;;;;5056922;28;19908;-84
2023/06/07 00:26:59;;;;;;;;;;;12.00;99.90;;;;;;5073543;28;19914;-83
2023/06/07 00:29:25;;;;;;;;;;;11.80;99.90;;;;;;5056638;28;19955;-84
2023/06/07 00:31:51;;;;;;;;;;;11.70;99.90;;;;;;5073407;28;19940;-83
2023/06/07 00:34:16;;;;;;;;;;;11.70;99.90;;;;;;5056728;28;19908;-83
2023/06/07 00:36:42;;;;;;;;;;;11.60;99.90;;;;;;5073445;28;19912;-83
2023/06/07 00:39:08;;;;;;;;;;;11.50;99.90;;;;;;5056971;28;19904;-84
2023/06/07 00:41:33;;;;;;;;;;;11.40;99.90;;;;;;5073618;28;19951;-83
2023/06/07 00:44:01;;;;;;;;;;;11.30;99.90;;;;;;5073702;28;20013;-83
2023/06/07 00:46:29;;;;;;;;;;;11.30;99.90;;;;;;5072855;28;19912;-84
2023/06/07 00:48:55;;;;;;;;;;;11.20;99.90;;;;;;5073389;28;20247;-84
2023/06/07 00:54:29;;;;;;;;;;;11.00;99.90;;;;;;5079148;28;19931;-83
2023/06/07 00:56:55;;;;;;;;;;;10.90;99.90;;;;;;5071205;28;19912;-83
2023/06/07 00:59:21;;;;;;;;;;;10.90;99.90;;;;;;5072661;28;19908;-83
2023/06/07 01:01:53;;;;;;;;;;;10.80;99.90;;;;;;5055678;28;20011;-84
2023/06/07 01:04:19;;;;;;;;;;;10.80;99.90;;;;;;5072701;28;19954;-83
2023/06/07 01:06:45;;;;;;;;;;;10.80;99.90;;;;;;5072905;28;20003;-84
2023/06/07 01:09:13;;;;;;;;;;;10.80;99.90;;;;;;5072236;28;19912;-83
2023/06/07 01:11:41;;;;;;;;;;;10.70;99.90;;;;;;5056109;28;19909;-83
2023/06/07 01:14:26;;;;;;;;;;;10.60;99.90;;;;;;5055913;28;19908;-83
2023/06/07 01:16:52;;;;;;;;;;;10.70;99.90;;;;;;5073262;28;19955;-84
2023/06/07 01:19:22;;;;;;;;;;;10.60;99.90;;;;;;5072412;28;19908;-83
2023/06/07 01:21:54;;;;;;;;;;;10.60;99.90;;;;;;5056068;28;19909;-83
2023/06/07 01:24:20;;;;;;;;;;;10.60;99.90;;;;;;5056065;28;19943;-83
2023/06/07 01:26:47;;;;;;;;;;;10.60;99.90;;;;;;5055491;28;19944;-83
2023/06/07 01:29:15;;;;;;;;;;;10.50;99.90;;;;;;5056119;28;19908;-84
2023/06/07 01:32:12;;;;;;;;;;;10.50;99.90;;;;;;5056715;28;19909;-83
2023/06/07 01:34:38;;;;;;;;;;;10.50;99.90;;;;;;5088678;28;19908;-84
2023/06/07 01:37:04;;;;;;;;;;;10.40;99.90;;;;;;5055973;28;19908;-84
2023/06/07 01:39:30;;;;;;;;;;;10.40;99.90;;;;;;5072851;28;20358;-84
2023/06/07 01:41:56;;;;;;;;;;;10.40;99.90;;;;;;5072600;28;19962;-85
2023/06/07 01:44:22;;;;;;;;;;;10.40;99.90;;;;;;5055630;28;19908;-84
2023/06/07 01:46:48;;;;;;;;;;;10.40;99.90;;;;;;5072730;28;19919;-84
2023/06/07 01:49:39;;;;;;;;;;;10.40;99.90;;;;;;5071817;28;20319;-84
2023/06/07 01:52:05;;;;;;;;;;;10.40;99.90;;;;;;5071018;28;20402;-84
2023/06/07 01:54:31;;;;;;;;;;;10.40;99.90;;;;;;5071590;28;19952;-84
2023/06/07 01:57:00;;;;;;;;;;;10.40;99.90;;;;;;5055935;28;19912;-84
2023/06/07 01:59:27;;;;;;;;;;;10.40;99.90;;;;;;5072450;28;19947;-84
2023/06/07 02:01:57;;;;;;;;;;;10.40;99.90;;;;;;5055181;28;19908;-84
2023/06/07 02:04:25;;;;;;;;;;;10.40;99.90;;;;;;5071922;28;19955;-84
2023/06/07 02:10:04;;;;;;;;;;;10.30;99.90;;;;;;5072371;28;19916;-85
2023/06/07 02:12:30;;;;;;;;;;;10.30;99.90;;;;;;5072183;28;19908;-85
2023/06/07 02:14:57;;;;;;;;;;;10.30;99.90;;;;;;5072589;28;19909;-84
2023/06/07 02:17:24;;;;;;;;;;;10.30;99.90;;;;;;5055673;28;19947;-85
2023/06/07 02:19:50;;;;;;;;;;;10.30;99.90;;;;;;5071903;28;19916;-85
2023/06/07 02:22:15;;;;;;;;;;;10.30;99.90;;;;;;5055341;28;19904;-85
2023/06/07 02:24:47;;;;;;;;;;;10.20;99.90;;;;;;5055583;28;20017;-84
2023/06/07 02:27:12;;;;;;;;;;;10.20;99.90;;;;;;5065576;28;19935;-84
2023/06/07 02:29:38;;;;;;;;;;;10.10;99.90;;;;;;5072266;28;19908;-85
2023/06/07 02:32:04;;;;;;;;;;;10.10;99.90;;;;;;5075756;28;19908;-84
2023/06/07 02:34:29;;;;;;;;;;;10.10;99.90;;;;;;5058438;28;19905;-85
2023/06/07 02:36:57;;;;;;;;;;;10.10;99.90;;;;;;5075098;28;20359;-84
2023/06/07 02:39:22;;;;;;;;;;;10.10;99.90;;;;;;5075414;28;19896;-85
2023/06/07 02:41:48;;;;;;;;;;;10.00;99.90;;;;;;5075398;28;19930;-84
2023/06/07 02:44:13;;;;;;;;;;;9.90;99.90;;;;;;5057806;28;19920;-84
2023/06/07 02:46:39;;;;;;;;;;;9.90;99.90;;;;;;5075365;28;19916;-84
2023/06/07 02:49:05;;;;;;;;;;;9.90;99.90;;;;;;5075159;28;20267;-85
2023/06/07 02:51:31;;;;;;;;;;;9.90;99.90;;;;;;5075502;28;19908;-84
2023/06/07 02:53:56;;;;;;;;;;;9.90;99.90;;;;;;5075711;28;19916;-85
2023/06/07 02:56:26;;;;;;;;;;;10.00;99.90;;;;;;5074813;28;20641;-84
2023/06/07 02:58:51;;;;;;;;;;;10.00;99.90;;;;;;5058228;28;20002;-84
2023/06/07 03:01:19;;;;;;;;;;;10.00;99.90;;;;;;5075134;28;19908;-84
2023/06/07 03:03:49;;;;;;;;;;;9.90;99.90;;;;;;5075278;28;19915;-84
2023/06/07 03:06:15;;;;;;;;;;;9.80;99.90;;;;;;5059006;28;20351;-84
2023/06/07 03:08:41;;;;;;;;;;;9.80;99.90;;;;;;5058521;28;20317;-84
2023/06/07 03:11:09;;;;;;;;;;;9.90;99.90;;;;;;5074823;28;19954;-84
2023/06/07 03:13:40;;;;;;;;;;;9.90;99.90;;;;;;5074975;28;19909;-84
2023/06/07 03:16:09;;;;;;;;;;;10.10;99.90;;;;;;5075037;28;20371;-85
2023/06/07 03:18:45;;;;;;;;;;;10.20;99.90;;;;;;5075107;28;19908;-85
2023/06/07 03:21:11;;;;;;;;;;;10.30;99.90;;;;;;5057648;28;20321;-86
2023/06/07 03:23:38;;;;;;;;;;;10.50;99.90;;;;;;5072670;28;19916;-86
2023/06/07 03:26:10;;;;;;;;;;;10.70;99.90;;;;;;5091355;28;19989;-86
2023/06/07 03:28:36;;;;;;;;;;;11.00;99.90;;;;;;5057911;28;19915;-87
2023/06/07 03:31:03;;;;;;;;;;;11.30;99.90;;;;;;5075442;28;20018;-87
2023/06/07 03:33:39;;;;;;;;;;;11.50;99.90;;;;;;5074941;28;19916;-86
2023/06/07 03:36:07;;;;;;;;;;;11.70;99.90;;;;;;5075408;28;19912;-87
2023/06/07 03:38:33;;;;;;;;;;;11.90;99.90;;;;;;5058058;28;19950;-87
2023/06/07 03:40:59;;;;;;;;;;;12.00;99.90;;;;;;5075000;28;19954;-86
2023/06/07 03:43:28;;;;;;;;;;;12.10;99.90;;;;;;5074650;28;19908;-86
2023/06/07 03:45:54;;;;;;;;;;;12.30;99.90;;;;;;5058209;28;19912;-87
2023/06/07 03:48:19;;;;;;;;;;;12.30;99.90;;;;;;5074993;28;20336;-87
2023/06/07 03:50:45;;;;;;;;;;;12.40;99.90;;;;;;5074934;28;19912;-87
2023/06/07 03:53:13;;;;;;;;;;;12.50;99.90;;;;;;5056278;28;20352;-87
2023/06/07 03:55:42;;;;;;;;;;;12.60;99.90;;;;;;5058439;28;19908;-87
2023/06/07 03:58:09;;;;;;;;;;;12.80;99.90;;;;;;5074725;28;19999;-87
2023/06/07 04:00:36;;;;;;;;;;;12.90;99.90;;;;;;5074373;28;19953;-87
2023/06/07 04:03:01;;;;;;;;;;;13.00;99.90;;;;;;5074898;28;19908;-86
2023/06/07 04:05:28;;;;;;;;;;;13.20;99.90;;;;;;5057912;28;20330;-87
2023/06/07 04:07:59;;;;;;;;;;;13.30;99.90;;;;;;5073767;28;19920;-87
2023/06/07 04:10:26;;;;;;;;;;;13.40;99.90;;;;;;5057765;28;19908;-87
2023/06/07 04:12:51;;;;;;;;;;;13.50;99.90;;;;;;5074490;28;20279;-86
2023/06/07 04:15:17;;;;;;;;;;;13.70;99.90;;;;;;5073913;28;19908;-87
2023/06/07 04:17:43;;;;;;;;;;;13.80;99.90;;;;;;5074489;28;19915;-87
2023/06/07 04:20:10;;;;;;;;;;;13.90;99.90;;;;;;5073987;28;19905;-87
2023/06/07 04:22:36;;;;;;;;;;;14.10;99.90;;;;;;5074367;28;19978;-87
2023/06/07 04:25:03;;;;;;;;;;;14.20;99.90;;;;;;5057655;28;19947;-88
2023/06/07 04:27:29;;;;;;;;;;;14.40;99.90;;;;;;5057419;28;19912;-87
2023/06/07 04:29:56;;;;;;;;;;;14.50;99.90;;;;;;5074234;28;19953;-87
2023/06/07 04:32:22;;;;;;;;;;;14.70;99.90;;;;;;5057466;28;19909;-87
2023/06/07 04:34:53;;;;;;;;;;;14.90;99.90;;;;;;5057832;28;20006;-87
2023/06/07 04:37:19;;;;;;;;;;;15.00;99.90;;;;;;5074338;28;19994;-87
2023/06/07 04:39:48;;;;;;;;;;;15.10;99.90;;;;;;5074110;28;19976;-87
2023/06/07 04:42:16;;;;;;;;;;;15.30;99.90;;;;;;5070627;28;19994;-88
2023/06/07 04:44:42;;;;;;;;;;;15.30;99.90;;;;;;5059714;28;19992;-87
2023/06/07 04:47:13;;;;;;;;;;;15.40;99.90;;;;;;5073725;28;20249;-87
2023/06/07 04:49:53;;;;;;;;;;;15.50;99.90;;;;;;5074023;28;19908;-87
2023/06/07 04:52:20;;;;;;;;;;;15.60;99.90;;;;;;5091182;28;19908;-87
2023/06/07 04:54:51;;;;;;;;;;;15.70;99.90;;;;;;5069286;28;19904;-87
2023/06/07 04:57:19;;;;;;;;;;;15.80;99.90;;;;;;5074598;28;19915;-87
2023/06/07 04:59:48;;;;;;;;;;;15.90;99.90;;;;;;5074910;28;19934;-87
2023/06/07 05:02:20;;;;;;;;;;;16.00;99.90;;;;;;5067930;28;19951;-87
2023/06/07 05:04:46;;;;;;;;;;;16.00;99.90;;;;;;5057588;28;19909;-86
2023/06/07 05:07:14;;;;;;;;;;;15.90;99.90;;;;;;5073371;28;19997;-87
2023/06/07 05:09:43;;;;;;;;;;;15.90;99.90;;;;;;5073658;28;19910;-87
2023/06/07 05:12:09;;;;;;;;;;;16.00;99.90;;;;;;5057181;28;19939;-87
2023/06/07 05:14:35;;;;;;;;;;;16.10;99.90;;;;;;5073924;28;19912;-87
2023/06/07 05:17:02;;;;;;;;;;;16.20;99.90;;;;;;5057141;28;19915;-87
2023/06/07 05:19:31;;;;;;;;;;;16.30;99.90;;;;;;5073668;28;19909;-87
2023/06/07 05:21:56;;;;;;;;;;;16.30;99.90;;;;;;5059711;28;19908;-87
2023/06/07 05:24:22;;;;;;;;;;;16.40;99.90;;;;;;5058601;28;19908;-87
2023/06/07 05:26:48;;;;;;;;;;;16.50;99.90;;;;;;5057137;28;19919;-87
2023/06/07 05:29:13;;;;;;;;;;;16.60;99.90;;;;;;5073536;28;19908;-87
2023/06/07 05:31:40;;;;;;;;;;;16.70;99.90;;;;;;5056521;28;19908;-87
2023/06/07 05:34:06;;;;;;;;;;;16.60;99.90;;;;;;5091092;28;19996;-88
2023/06/07 05:36:34;;;;;;;;;;;16.60;99.90;;;;;;5073485;28;19908;-88
2023/06/07 05:39:01;;;;;;;;;;;16.50;99.90;;;;;;5073853;28;19909;-88
2023/06/07 05:41:27;;;;;;;;;;;16.60;99.90;;;;;;5056854;28;19908;-87
2023/06/07 05:43:53;;;;;;;;;;;16.60;99.90;;;;;;5073508;28;19908;-87
2023/06/07 05:46:19;;;;;;;;;;;16.60;99.90;;;;;;5057233;28;19908;-87
2023/06/07 05:48:46;;;;;;;;;;;16.80;99.90;;;;;;5061008;28;19908;-87
2023/06/07 05:51:17;;;;;;;;;;;17.10;99.90;;;;;;5057830;28;19908;-87
2023/06/07 05:53:44;;;;;;;;;;;17.30;99.90;;;;;;5056513;28;19914;-87
2023/06/07 05:56:11;;;;;;;;;;;17.40;99.90;;;;;;5062998;28;19918;-86
2023/06/07 05:58:37;;;;;;;;;;;17.10;99.90;;;;;;5070618;28;19918;-86
2023/06/07 06:01:05;;;;;;;;;;;17.20;99.90;;;;;;5070559;28;19909;-87
2023/06/07 06:03:30;;;;;;;;;;;17.30;99.90;;;;;;5054825;28;19909;-87
2023/06/07 06:05:57;;;;;;;;;;;17.50;99.90;;;;;;5067901;28;19911;-87
2023/06/07 06:08:22;;;;;;;;;;;17.60;99.90;;;;;;5057400;28;19912;-87
2023/06/07 06:10:48;;;;;;;;;;;17.90;99.90;;;;;;5071486;28;19959;-86
2023/06/07 06:13:13;;;;;;;;;;;18.10;99.90;;;;;;5079147;28;19972;-87
2023/06/07 06:15:39;;;;;;;;;;;18.50;99.90;;;;;;5074632;28;19908;-86
2023/06/07 06:18:05;;;;;;;;;;;18.60;99.90;;;;;;5068096;28;19916;-87
2023/06/07 06:20:33;;;;;;;;;;;19.10;99.90;;;;;;5069703;28;19908;-87
2023/06/07 06:22:59;;;;;;;;;;;19.40;99.90;;;;;;5065779;28;20421;-87
2023/06/07 06:25:25;;;;;;;;;;;19.70;99.90;;;;;;5070838;28;19966;-88
2023/06/07 06:27:51;;;;;;;;;;;19.80;99.90;;;;;;5066235;28;20336;-87
2023/06/07 06:30:16;;;;;;;;;;;19.50;99.90;;;;;;5081028;28;20371;-87
2023/06/07 06:32:42;;;;;;;;;;;19.30;99.90;;;;;;5069382;28;19999;-87
2023/06/07 06:35:08;;;;;;;;;;;19.10;99.90;;;;;;5074688;28;19951;-87
2023/06/07 06:37:34;;;;;;;;;;;19.00;99.90;;;;;;5071868;28;19908;-87
2023/06/07 06:39:59;;;;;;;;;;;18.80;99.90;;;;;;5080872;28;20355;-87
2023/06/07 06:42:25;;;;;;;;;;;18.80;99.90;;;;;;5054035;28;19908;-87
2023/06/07 06:45:12;;;;;;;;;;;18.70;99.90;;;;;;5056598;28;20003;-87
2023/06/07 06:47:41;;;;;;;;;;;18.70;99.90;;;;;;5065198;28;19981;-87
2023/06/07 06:50:10;;;;;;;;;;;18.90;99.90;;;;;;5062222;28;19916;-87
2023/06/07 06:52:37;;;;;;;;;;;18.90;99.90;;;;;;5076517;28;20030;-87
2023/06/07 06:55:04;;;;;;;;;;;19.00;99.90;;;;;;5067895;28;20410;-87
2023/06/07 06:57:29;;;;;;;;;;;19.10;99.90;;;;;;5067262;28;20352;-87
2023/06/07 06:59:55;;;;;;;;;;;19.40;99.90;;;;;;5073471;28;19908;-87
2023/06/07 07:02:21;;;;;;;;;;;19.60;99.90;;;;;;5055481;28;19908;-87
2023/06/07 07:04:47;;;;;;;;;;;19.60;99.90;;;;;;5057471;28;19925;-87
2023/06/07 07:07:12;;;;;;;;;;;19.60;99.90;;;;;;5070296;28;19955;-87
2023/06/07 07:09:38;;;;;;;;;;;19.70;99.90;;;;;;5070205;28;19909;-87
2023/06/07 07:12:05;;;;;;;;;;;19.80;99.90;;;;;;5067262;28;20368;-86
2023/06/07 07:14:30;;;;;;;;;;;20.10;99.90;;;;;;5071330;28;20011;-87
2023/06/07 07:17:05;;;;;;;;;;;20.50;99.90;;;;;;5052648;28;20345;-86
2023/06/07 07:19:31;;;;;;;;;;;20.90;99.90;;;;;;5050815;28;19950;-88
2023/06/07 07:21:57;;;;;;;;;;;20.70;99.90;;;;;;5057438;28;19908;-87
2023/06/07 07:24:22;;;;;;;;;;;20.70;99.90;;;;;;5054429;28;19909;-87
2023/06/07 07:26:48;;;;;;;;;;;20.90;99.90;;;;;;5065490;28;19919;-88
2023/06/07 07:29:14;;;;;;;;;;;21.40;99.90;;;;;;5068543;28;19909;-87
2023/06/07 07:31:40;;;;;;;;;;;21.60;99.90;;;;;;5071940;28;19908;-88
2023/06/07 07:34:05;;;;;;;;;;;21.40;99.90;;;;;;5072381;28;19923;-87
2023/06/07 07:36:33;;;;;;;;;;;21.50;99.90;;;;;;5071497;28;19912;-87
2023/06/07 07:39:04;;;;;;;;;;;21.40;99.90;;;;;;5050754;28;20079;-85
2023/06/07 07:41:33;;;;;;;;;;;21.50;99.90;;;;;;5064382;28;19915;-87
2023/06/07 07:43:59;;;;;;;;;;;21.40;99.90;;;;;;5063506;28;19892;-87
2023/06/07 07:46:27;;;;;;;;;;;20.90;99.90;;;;;;5072218;28;19917;-86
2023/06/07 07:48:52;;;;;;;;;;;20.40;99.90;;;;;;5072234;28;19915;-87
2023/06/07 07:51:18;;;;;;;;;;;20.40;99.90;;;;;;5055517;28;20326;-87
2023/06/07 07:53:47;;;;;;;;;;;20.40;99.90;;;;;;5071715;28;19937;-87
2023/06/07 07:56:22;;;;;;;;;;;20.50;99.90;;;;;;5049060;28;20379;-88
2023/06/07 07:58:48;;;;;;;;;;;20.40;99.90;;;;;;5054818;28;19908;-85
2023/06/07 08:01:20;;;;;;;;;;;20.50;99.90;;;;;;5057304;28;20256;-86
2023/06/07 08:03:46;;;;;;;;;;;20.90;99.90;;;;;;5054884;28;19998;-86
2023/06/07 08:06:12;;;;;;;;;;;21.40;99.90;;;;;;5074339;28;19909;-86
2023/06/07 08:08:38;;;;;;;;;;;21.80;99.90;;;;;;5062771;28;19915;-85
2023/06/07 08:11:03;;;;;;;;;;;21.60;99.90;;;;;;5081430;28;19908;-85
2023/06/07 08:13:29;;;;;;;;;;;21.60;99.90;;;;;;5062110;28;19930;-86
2023/06/07 08:15:55;;;;;;;;;;;21.50;99.90;;;;;;5077006;28;19912;-86
2023/06/07 08:18:20;;;;;;;;;;;21.20;99.90;;;;;;5073779;28;20351;-87
2023/06/07 08:20:46;;;;;;;;;;;20.90;99.90;;;;;;5073752;28;20360;-86
2023/06/07 08:23:12;;;;;;;;;;;20.60;99.90;;;;;;5074993;28;19957;-85
2023/06/07 08:25:37;;;;;;;;;;;20.80;99.90;;;;;;5074745;28;19999;-85
2023/06/07 08:28:04;;;;;;;;;;;20.70;99.90;;;;;;5074215;28;19912;-86
2023/06/07 08:30:30;;;;;;;;;;;20.70;99.90;;;;;;5074145;28;19915;-86
2023/06/07 08:32:56;;;;;;;;;;;20.60;99.90;;;;;;5075099;28;19914;-86
2023/06/07 08:35:22;;;;;;;;;;;20.50;99.90;;;;;;5074087;28;20283;-86
2023/06/07 08:37:48;;;;;;;;;;;20.80;99.90;;;;;;5073820;28;19908;-87
2023/06/07 08:40:17;;;;;;;;;;;21.00;99.90;;;;;;5074946;28;20363;-86
2023/06/07 08:42:42;;;;;;;;;;;21.10;99.90;;;;;;5057864;28;20306;-87
2023/06/07 08:45:08;;;;;;;;;;;21.20;99.90;;;;;;5073823;28;19909;-86
2023/06/07 08:47:36;;;;;;;;;;;21.10;99.90;;;;;;5074615;28;19912;-86
2023/06/07 08:50:02;;;;;;;;;;;21.20;99.90;;;;;;5074295;28;19930;-86
2023/06/07 08:52:30;;;;;;;;;;;21.30;99.90;;;;;;5073055;28;19908;-86
2023/06/07 08:54:58;;;;;;;;;;;21.40;99.90;;;;;;5073583;28;19995;-86
2023/06/07 08:57:25;;;;;;;;;;;21.60;99.90;;;;;;5073063;28;19957;-86
2023/06/07 08:59:51;;;;;;;;;;;21.40;99.90;;;;;;5072895;28;19912;-87
2023/06/07 09:02:17;;;;;;;;;;;20.70;99.90;;;;;;5056276;28;20049;-86
2023/06/07 09:04:43;;;;;;;;;;;20.30;99.90;;;;;;5073441;28;19916;-86
2023/06/07 09:07:08;;;;;;;;;;;20.30;99.90;;;;;;5056345;28;20370;-86
2023/06/07 09:09:35;;;;;;;;;;;20.70;99.90;;;;;;5056351;28;20377;-86
2023/06/07 09:12:01;;;;;;;;;;;20.90;99.90;;;;;;5056618;28;19908;-86
2023/06/07 09:14:28;;;;;;;;;;;21.50;99.90;;;;;;5090820;28;19927;-86
2023/06/07 09:16:57;;;;;;;;;;;22.10;99.90;;;;;;5073558;28;19950;-87
2023/06/07 09:19:31;;;;;;;;;;;22.60;99.90;;;;;;5074038;28;19916;-87
2023/06/07 09:21:57;;;;;;;;;;;22.90;99.90;;;;;;5073524;28;19948;-86
2023/06/07 09:24:30;;;;;;;;;;;22.70;99.90;;;;;;5090013;28;19943;-86
2023/06/07 09:26:56;;;;;;;;;;;22.70;99.90;;;;;;5072872;28;19913;-89
2023/06/07 09:29:21;;;;;;;;;;;22.00;99.90;;;;;;5072688;28;19904;-86
2023/06/07 09:31:47;;;;;;;;;;;21.60;99.90;;;;;;5056704;28;19915;-88
2023/06/07 09:34:22;;;;;;;;;;;21.30;99.90;;;;;;5073147;28;19908;-86
2023/06/07 09:36:56;;;;;;;;;;;21.20;99.90;;;;;;5086313;28;19908;-86
2023/06/07 09:39:24;;;;;;;;;;;21.10;99.90;;;;;;5077840;28;19908;-87
2023/06/07 09:41:54;;;;;;;;;;;21.00;99.90;;;;;;5073930;28;19937;-86
2023/06/07 09:44:27;;;;;;;;;;;20.90;99.90;;;;;;5070407;28;20352;-87
2023/06/07 09:46:53;;;;;;;;;;;20.90;99.90;;;;;;5061671;28;20279;-86
2023/06/07 09:49:37;;;;;;;;;;;21.30;99.90;;;;;;5074526;28;19908;-87
2023/06/07 09:52:04;;;;;;;;;;;21.50;99.90;;;;;;5077825;28;19908;-87
2023/06/07 09:54:39;;;;;;;;;;;21.60;99.90;;;;;;5097511;28;19908;-86
2023/06/07 09:57:06;;;;;;;;;;;21.30;99.90;;;;;;5082070;28;19920;-86
2023/06/07 09:59:32;;;;;;;;;;;21.20;99.90;;;;;;5066730;28;19908;-86
2023/06/07 10:01:58;;;;;;;;;;;21.30;99.90;;;;;;5061605;28;19938;-87
2023/06/07 10:04:23;;;;;;;;;;;21.30;99.90;;;;;;5095258;28;19991;-85
2023/06/07 10:06:50;;;;;;;;;;;21.40;99.90;;;;;;5075034;28;19915;-86
2023/06/07 10:09:17;;;;;;;;;;;21.60;99.90;;;;;;5084881;28;19915;-86
2023/06/07 10:11:44;;;;;;;;;;;22.20;99.90;;;;;;5076949;28;19943;-86
2023/06/07 10:14:10;;;;;;;;;;;23.40;99.90;;;;;;5069012;28;19908;-87
2023/06/07 10:16:37;;;;;;;;;;;24.40;99.90;;;;;;5102174;28;19908;-86
2023/06/07 10:19:25;;;;;;;;;;;24.50;99.90;;;;;;5065808;28;19931;-87
2023/06/07 10:21:53;;;;;;;;;;;24.60;99.90;;;;;;5061971;28;19908;-87
2023/06/07 10:24:22;;;;;;;;;;;24.50;99.90;;;;;;5056273;28;19959;-87
2023/06/07 10:26:47;;;;;;;;;;;25.00;99.90;;;;;;5097794;28;20262;-87
2023/06/07 10:29:17;;;;;;;;;;;25.10;99.90;;;;;;5064465;28;19916;-87
2023/06/07 10:31:53;;;;;;;;;;;25.70;99.90;;;;;;5087241;28;19915;-87
2023/06/07 10:34:19;;;;;;;;;;;26.50;99.90;;;;;;5074135;28;19966;-87
2023/06/07 10:36:45;;;;;;;;;;;26.60;99.90;;;;;;5081857;28;20439;-85
2023/06/07 10:39:11;;;;;;;;;;;26.50;99.90;;;;;;5076961;28;20009;-88
2023/06/07 10:41:37;;;;;;;;;;;26.20;99.90;;;;;;5058368;28;20368;-87
2023/06/07 10:44:03;;;;;;;;;;;25.60;99.90;;;;;;5075995;28;19909;-87
2023/06/07 10:46:29;;;;;;;;;;;25.30;99.90;;;;;;5077150;28;19908;-87
2023/06/07 10:48:55;;;;;;;;;;;24.90;99.90;;;;;;5076093;28;19943;-88
2023/06/07 10:51:40;;;;;;;;;;;24.80;99.90;;;;;;5076100;28;19917;-87
2023/06/07 10:54:06;;;;;;;;;;;24.60;99.90;;;;;;5076155;28;19912;-86
2023/06/07 10:56:33;;;;;;;;;;;24.70;99.90;;;;;;5077841;28;19908;-88
2023/06/07 10:59:14;;;;;;;;;;;25.30;99.90;;;;;;5058941;28;19908;-87
2023/06/07 11:01:40;;;;;;;;;;;25.50;99.90;;;;;;5068331;28;19915;-87
2023/06/07 11:04:06;;;;;;;;;;;24.90;99.90;;;;;;5075730;28;20264;-87
2023/06/07 11:06:35;;;;;;;;;;;24.10;99.90;;;;;;5076789;28;19918;-88
2023/06/07 11:09:19;;;;;;;;;;;23.60;99.90;;;;;;5076588;28;20007;-87
2023/06/07 11:11:45;;;;;;;;;;;23.20;99.90;;;;;;5085675;28;19912;-87
2023/06/07 11:14:12;;;;;;;;;;;22.90;99.90;;;;;;5058653;28;19915;-87
2023/06/07 11:16:37;;;;;;;;;;;22.70;99.90;;;;;;5058717;28;19908;-87
2023/06/07 11:19:09;;;;;;;;;;;22.90;99.90;;;;;;5080558;28;19908;-87
2023/06/07 11:22:04;;;;;;;;;;;23.00;99.90;;;;;;5096718;28;19916;-87
2023/06/07 11:24:30;;;;;;;;;;;23.10;99.90;;;;;;5077536;28;20725;-88
2023/06/07 11:26:56;;;;;;;;;;;23.30;99.90;;;;;;5075597;28;19962;-87
2023/06/07 11:29:22;;;;;;;;;;;23.30;99.90;;;;;;5075687;28;20352;-87
2023/06/07 11:31:55;;;;;;;;;;;23.00;99.90;;;;;;5073168;28;19908;-87
2023/06/07 11:34:21;;;;;;;;;;;23.00;99.90;;;;;;5073843;28;19990;-88
2023/06/07 11:36:46;;;;;;;;;;;23.30;99.90;;;;;;5080996;28;19971;-87
2023/06/07 11:39:16;;;;;;;;;;;23.70;99.90;;;;;;5086653;28;20394;-88
2023/06/07 11:41:42;;;;;;;;;;;23.90;99.90;;;;;;5081284;28;19908;-88
2023/06/07 11:44:09;;;;;;;;;;;24.40;99.90;;;;;;5055201;28;19909;-88
2023/06/07 11:46:35;;;;;;;;;;;24.40;99.90;;;;;;5063878;28;19916;-88
2023/06/07 11:49:07;;;;;;;;;;;24.50;99.90;;;;;;5055583;28;19908;-88
2023/06/07 11:51:32;;;;;;;;;;;24.10;99.90;;;;;;5083852;28;19908;-88
2023/06/07 11:53:58;;;;;;;;;;;23.70;99.90;;;;;;5059218;28;19909;-88
2023/06/07 11:56:25;;;;;;;;;;;23.50;99.90;;;;;;5105012;28;19933;-87
2023/06/07 11:58:52;;;;;;;;;;;23.60;99.90;;;;;;5060847;28;20355;-88
2023/06/07 12:01:19;;;;;;;;;;;24.40;99.90;;;;;;5083637;28;19915;-87
2023/06/07 12:03:45;;;;;;;;;;;25.20;99.90;;;;;;5080860;28;19916;-89
2023/06/07 12:06:11;;;;;;;;;;;25.70;99.90;;;;;;5066531;28;19913;-88
2023/06/07 12:08:37;;;;;;;;;;;25.40;99.90;;;;;;5068143;28;20010;-88
2023/06/07 12:11:03;;;;;;;;;;;25.90;99.90;;;;;;5078212;28;20347;-89
2023/06/07 12:13:34;;;;;;;;;;;25.80;99.90;;;;;;5072441;28;20026;-88
2023/06/07 12:16:00;;;;;;;;;;;25.20;99.90;;;;;;5085431;28;19912;-88
2023/06/07 12:18:29;;;;;;;;;;;24.90;99.90;;;;;;5073221;28;19917;-87
2023/06/07 12:21:08;;;;;;;;;;;24.20;99.90;;;;;;5081405;28;19912;-88
2023/06/07 12:23:38;;;;;;;;;;;23.70;99.90;;;;;;5074436;28;19970;-89
2023/06/07 12:26:11;;;;;;;;;;;23.60;99.90;;;;;;5063458;28;19956;-88
2023/06/07 12:28:38;;;;;;;;;;;24.30;99.90;;;;;;5086968;28;19958;-89
2023/06/07 12:31:12;;;;;;;;;;;25.00;99.90;;;;;;5054582;28;19912;-88
2023/06/07 12:33:38;;;;;;;;;;;25.60;99.80;;;;;;5074491;28;20007;-88
2023/06/07 12:36:04;;;;;;;;;;;26.40;97.90;;;;;;5092651;28;19943;-89
2023/06/07 12:38:30;;;;;;;;;;;27.00;95.90;;;;;;5057459;28;19908;-89
2023/06/07 12:40:56;;;;;;;;;;;27.10;95.30;;;;;;5080417;28;19909;-88
2023/06/07 12:43:23;;;;;;;;;;;27.60;94.90;;;;;;5074468;28;19959;-88
2023/06/07 12:45:48;;;;;;;;;;;28.00;95.40;;;;;;5075722;28;19908;-88
2023/06/07 12:48:14;;;;;;;;;;;27.50;93.40;;;;;;5081592;28;20011;-89
2023/06/07 12:50:40;;;;;;;;;;;28.00;90.90;;;;;;5093849;28;19953;-89
2023/06/07 12:53:05;;;;;;;;;;;28.80;92.20;;;;;;5064787;28;19951;-88
2023/06/07 12:55:31;;;;;;;5.40;2.15;;;29.00;89.90;;;;;;5078577;28;19962;-89
2023/06/07 12:57:57;;;;;;;5.35;2.15;;;29.20;88.20;;;;;;5049848;28;20033;-87
2023/06/07 13:00:23;;;;;;;8.60;2.10;;;29.80;87.00;;;;;;5075335;28;20043;-86
2023/06/07 13:02:49;;;;;;;5.18;2.00;;;29.20;82.60;;;;;;5063548;28;20035;-86
2023/06/07 13:05:14;;;;;;;3.28;1.90;;;28.30;83.50;;;;;;5053668;28;20033;-87
2023/06/07 13:07:41;;;;;;;2.58;2.13;;;28.40;82.60;;;;;;5073950;28;20024;-87
2023/06/07 13:10:08;;;;;;;2.30;2.10;;;27.90;84.40;;;;;;5057623;28;20032;-87
2023/06/07 13:12:33;;;;;;;4.15;2.15;;;27.40;85.40;;;;;;5079550;28;20479;-87
2023/06/07 13:14:59;;;;;;;2.10;1.90;;;27.00;87.40;;;;;;5051503;28;20063;-87
2023/06/07 13:17:25;;;;;;;4.38;2.00;;;27.00;88.00;;;;;;5076099;28;20030;-87
2023/06/07 13:19:51;;;;;;;2.40;2.20;;;27.60;84.60;;;;;;5079676;28;20479;-88
2023/06/07 13:22:17;;;;;;;1.95;1.80;;;28.50;85.40;;;;;;5069217;28;20119;-88
2023/06/07 13:24:43;;;;;;;4.28;1.88;;;29.50;82.50;;;;;;5069521;28;20055;-88
2023/06/07 13:27:09;;;;;;;2.10;1.90;;;30.20;78.50;;;;;;5060354;28;20040;-88
2023/06/07 13:29:35;;;;;;;3.22;2.28;;;30.60;77.90;;;;;;5069924;28;20039;-89
2023/06/07 13:32:00;;;;;;;3.63;2.17;;;29.60;76.00;;;;;;5062723;28;20481;-87
2023/06/07 13:34:26;;;;;;;5.15;3.15;;;28.30;77.20;;;;;;5077861;28;20443;-87
2023/06/07 13:36:53;;;;;;;;;;;27.30;79.90;;;;;;5072115;28;20541;-87
2023/06/07 13:39:19;;;;;;;;;;;26.70;83.60;;;;;;5074923;28;19920;-87
2023/06/07 13:41:45;;;;;;;;;;;27.10;82.70;;;;;;5087627;28;19923;-88
2023/06/07 13:44:10;;;;;;;;;;;27.90;80.40;;;;;;5076744;28;19909;-88
2023/06/07 13:46:36;;;;;;;;;;;28.30;78.60;;;;;;5066091;28;19955;-88
2023/06/07 13:49:02;;;;;;;;;;;28.20;79.40;;;;;;5071273;28;19907;-87
2023/06/07 13:51:28;;;;;;;;;;;28.70;76.70;;;;;;5063087;28;19919;-88
2023/06/07 13:53:53;;;;;;;;;;;29.50;77.70;;;;;;5069387;28;19915;-88
2023/06/07 13:56:21;;;;;;;;;;;30.80;75.90;;;;;;5070034;28;19912;-88
2023/06/07 13:58:47;;;;;;;;;;;30.50;74.00;;;;;;5085428;28;19915;-88
2023/06/07 14:01:13;;;;;;;;;;;29.70;76.50;;;;;;5071805;28;20355;-88
2023/06/07 14:03:40;;;;;;;2.75;2.53;;;28.00;76.10;;;;;;5092026;28;19922;-88
2023/06/07 14:06:06;;;;;;;2.60;2.40;;;27.40;77.00;;;;;;5075852;28;20042;-88
2023/06/07 14:08:32;;;;;;;3.08;2.35;;;27.20;79.50;;;;;;5069114;28;20032;-87
2023/06/07 14:10:58;;;;;;;3.03;2.58;;;27.40;78.00;;;;;;5076967;28;20024;-87
2023/06/07 14:13:24;;;;;;;3.63;1.90;;;28.20;73.90;;;;;;5065071;28;20385;-88
2023/06/07 14:15:51;;;;;;;5.22;2.60;;;28.40;75.30;;;;;;5088740;28;20038;-87
2023/06/07 14:18:17;;;;;;;4.55;2.42;;;27.30;76.50;;;;;;5061448;28;20029;-88
2023/06/07 14:20:43;;;;;;;4.57;2.60;;;27.50;76.10;;;;;;5075510;28;20032;-87